Mitchell, Nebraska
Current Conditions -  °F | °C
As of 8:00 PM on Thursday 18 Dec 2014 (Local Time) from KBFF Reporting Station
Haze Haze  
Wind Chill:   Ceiling: Unl
Heat Index: 12°   Visibility: 3mi
Dew Point:   Wind: 5mph
Humidity: 88%   Direction: 10°N
Pressure: 30.08"   Gusts: NA
Location:  41.94°N, 103.81°W
Report Text: KBFF 190300Z AUTO 01004KT 3SM BR FEW002 M11/M13 A3008 RMK AO2 T11111128
Loading
Personal Weather Stations






























Interactive Weather Map New forecast layout! Learn more

10-Day Weather Forecast

Advertisements
Track Severe Weather on mobile